sensor_id;sensor_type;location;lat;lon;timestamp;pressure;altitude;pressure_sealevel;temperature;humidity
7748;BME280;3918;42.564;23.164;2022-10-16T05:01:04;-11650.84;;;-142.29;100.00
7748;BME280;3918;42.564;23.164;2022-10-16T05:03:31;-11650.84;;;-142.29;100.00
7748;BME280;3918;42.564;23.164;2022-10-16T05:05:58;-11650.84;;;-142.29;100.00
7748;BME280;3918;42.564;23.164;2022-10-16T05:08:24;-11650.84;;;-142.29;100.00
7748;BME280;3918;42.564;23.164;2022-10-16T05:10:51;-11650.84;;;-142.29;100.00
7748;BME280;3918;42.564;23.164;2022-10-16T05:13:18;-11650.84;;;-142.29;100.00
7748;BME280;3918;42.564;23.164;2022-10-16T05:15:46;-11650.84;;;-142.29;100.00
7748;BME280;3918;42.564;23.164;2022-10-16T05:18:15;-11650.84;;;-142.29;100.00
7748;BME280;3918;42.564;23.164;2022-10-16T05:20:42;-11650.84;;;-142.29;100.00
7748;BME280;3918;42.564;23.164;2022-10-16T05:23:09;-11650.84;;;-142.29;100.00
7748;BME280;3918;42.564;23.164;2022-10-16T05:25:37;-11650.84;;;-142.29;100.00
7748;BME280;3918;42.564;23.164;2022-10-16T05:28:04;-11650.84;;;-142.29;100.00
7748;BME280;3918;42.564;23.164;2022-10-16T05:30:31;-11650.84;;;-142.29;100.00
7748;BME280;3918;42.564;23.164;2022-10-16T05:32:57;-11650.84;;;-142.29;100.00
7748;BME280;3918;42.564;23.164;2022-10-16T05:35:25;-11650.84;;;-142.29;85.14
7748;BME280;3918;42.564;23.164;2022-10-16T05:37:52;-11650.84;;;-142.29;66.47
7748;BME280;3918;42.564;23.164;2022-10-16T05:40:19;-11650.84;;;-142.29;54.89
7748;BME280;3918;42.564;23.164;2022-10-16T05:42:46;-11650.84;;;-142.29;49.63
7748;BME280;3918;42.564;23.164;2022-10-16T05:45:12;-11650.84;;;-142.29;45.73
7748;BME280;3918;42.564;23.164;2022-10-16T05:47:39;-11650.84;;;-142.29;43.48
7748;BME280;3918;42.564;23.164;2022-10-16T05:50:07;-11650.84;;;-142.29;42.70
7748;BME280;3918;42.564;23.164;2022-10-16T05:52:35;-11650.84;;;-142.29;41.94
7748;BME280;3918;42.564;23.164;2022-10-16T05:55:02;-11650.84;;;-142.29;41.26
7748;BME280;3918;42.564;23.164;2022-10-16T05:57:29;-11650.84;;;-142.29;41.51
7748;BME280;3918;42.564;23.164;2022-10-16T05:59:56;-11650.84;;;-142.29;41.17
7748;BME280;3918;42.564;23.164;2022-10-16T06:02:23;-11650.84;;;-142.29;41.73
7748;BME280;3918;42.564;23.164;2022-10-16T06:04:51;-11650.84;;;-142.29;40.78
7748;BME280;3918;42.564;23.164;2022-10-16T06:07:19;-11650.84;;;-142.29;39.40
7748;BME280;3918;42.564;23.164;2022-10-16T06:09:49;-11650.84;;;-142.29;38.94
7748;BME280;3918;42.564;23.164;2022-10-16T06:12:16;-11650.84;;;-142.29;38.41
7748;BME280;3918;42.564;23.164;2022-10-16T06:14:43;-11650.84;;;-142.29;38.55
7748;BME280;3918;42.564;23.164;2022-10-16T06:17:10;-11650.84;;;-142.29;40.28
7748;BME280;3918;42.564;23.164;2022-10-16T06:19:37;-11650.84;;;-142.29;40.07
7748;BME280;3918;42.564;23.164;2022-10-16T06:22:04;-11650.84;;;-142.29;41.26
7748;BME280;3918;42.564;23.164;2022-10-16T06:24:30;-11650.84;;;-142.29;42.58
7748;BME280;3918;42.564;23.164;2022-10-16T06:26:59;-11650.84;;;-142.29;40.34
7748;BME280;3918;42.564;23.164;2022-10-16T06:29:25;-11650.84;;;-142.29;38.43
7748;BME280;3918;42.564;23.164;2022-10-16T06:31:52;-11650.84;;;-142.29;38.54
7748;BME280;3918;42.564;23.164;2022-10-16T06:34:19;-11650.84;;;-142.29;37.80
7748;BME280;3918;42.564;23.164;2022-10-16T06:36:46;-11650.84;;;-142.29;37.60
7748;BME280;3918;42.564;23.164;2022-10-16T06:39:13;-11650.84;;;-142.29;37.81
7748;BME280;3918;42.564;23.164;2022-10-16T06:41:40;-11650.84;;;-142.29;38.56
7748;BME280;3918;42.564;23.164;2022-10-16T06:44:08;-11650.84;;;-142.29;37.00
7748;BME280;3918;42.564;23.164;2022-10-16T06:46:35;-11650.84;;;-142.29;37.58
7748;BME280;3918;42.564;23.164;2022-10-16T06:49:02;-11650.84;;;-142.29;37.62
7748;BME280;3918;42.564;23.164;2022-10-16T06:51:29;-11650.84;;;-142.29;36.99
7748;BME280;3918;42.564;23.164;2022-10-16T06:53:57;-11650.84;;;-142.29;36.42
7748;BME280;3918;42.564;23.164;2022-10-16T06:56:26;-11650.84;;;-142.29;36.60
7748;BME280;3918;42.564;23.164;2022-10-16T06:58:53;-11650.84;;;-142.29;35.95
7748;BME280;3918;42.564;23.164;2022-10-16T07:01:23;-11650.84;;;-142.29;37.03
7748;BME280;3918;42.564;23.164;2022-10-16T07:03:50;-11650.84;;;-142.29;36.98
7748;BME280;3918;42.564;23.164;2022-10-16T07:06:19;-11650.84;;;-142.29;38.33
7748;BME280;3918;42.564;23.164;2022-10-16T07:08:47;-11650.84;;;-142.29;41.04
7748;BME280;3918;42.564;23.164;2022-10-16T07:11:16;-11650.84;;;-142.29;38.38
7748;BME280;3918;42.564;23.164;2022-10-16T07:13:44;-11650.84;;;-142.29;37.75
7748;BME280;3918;42.564;23.164;2022-10-16T07:16:14;-11650.84;;;-142.29;37.66
7748;BME280;3918;42.564;23.164;2022-10-16T07:18:44;-11650.84;;;-142.29;38.27
7748;BME280;3918;42.564;23.164;2022-10-16T07:21:13;-11650.84;;;-142.29;39.14
7748;BME280;3918;42.564;23.164;2022-10-16T07:23:40;-11650.84;;;-142.29;37.94
7748;BME280;3918;42.564;23.164;2022-10-16T07:26:08;-11650.84;;;-142.29;37.50
7748;BME280;3918;42.564;23.164;2022-10-16T07:28:35;-11650.84;;;-142.29;38.70
7748;BME280;3918;42.564;23.164;2022-10-16T07:31:03;-11650.84;;;-142.29;39.03
7748;BME280;3918;42.564;23.164;2022-10-16T07:33:30;-11650.84;;;-142.29;38.04
7748;BME280;3918;42.564;23.164;2022-10-16T07:35:58;-11650.84;;;-142.29;36.68
7748;BME280;3918;42.564;23.164;2022-10-16T07:38:25;-11650.84;;;-142.29;36.20
7748;BME280;3918;42.564;23.164;2022-10-16T07:40:56;-11650.84;;;-142.29;37.71
7748;BME280;3918;42.564;23.164;2022-10-16T07:43:23;-11650.84;;;-142.29;37.17
7748;BME280;3918;42.564;23.164;2022-10-16T07:45:50;-11650.84;;;-142.29;38.09
7748;BME280;3918;42.564;23.164;2022-10-16T07:48:17;-11650.84;;;-142.29;38.98
7748;BME280;3918;42.564;23.164;2022-10-16T07:50:45;-11650.84;;;-142.29;39.48
7748;BME280;3918;42.564;23.164;2022-10-16T07:53:13;-11650.84;;;-142.29;41.22
7748;BME280;3918;42.564;23.164;2022-10-16T07:55:40;-11650.84;;;-142.29;40.66
7748;BME280;3918;42.564;23.164;2022-10-16T07:58:07;-11650.84;;;-142.29;37.93
7748;BME280;3918;42.564;23.164;2022-10-16T08:00:33;-11650.84;;;-142.29;38.20
7748;BME280;3918;42.564;23.164;2022-10-16T08:03:00;-11650.84;;;-142.29;37.91
7748;BME280;3918;42.564;23.164;2022-10-16T08:05:27;-11650.84;;;-142.29;38.57
7748;BME280;3918;42.564;23.164;2022-10-16T08:07:55;-11650.84;;;-142.29;40.00
7748;BME280;3918;42.564;23.164;2022-10-16T08:10:24;-11650.84;;;-142.29;39.84
7748;BME280;3918;42.564;23.164;2022-10-16T08:12:52;-11650.84;;;-142.29;40.47
7748;BME280;3918;42.564;23.164;2022-10-16T08:15:19;-11650.84;;;-142.29;39.88
7748;BME280;3918;42.564;23.164;2022-10-16T08:17:54;-11650.84;;;-142.29;39.62
7748;BME280;3918;42.564;23.164;2022-10-16T08:20:21;-11650.84;;;-142.29;40.44
7748;BME280;3918;42.564;23.164;2022-10-16T08:22:48;-11650.84;;;-142.29;40.69
7748;BME280;3918;42.564;23.164;2022-10-16T08:25:14;-11650.84;;;-142.29;41.65
7748;BME280;3918;42.564;23.164;2022-10-16T08:27:43;-11650.84;;;-142.29;42.56
7748;BME280;3918;42.564;23.164;2022-10-16T08:30:10;-11650.84;;;-142.29;43.67
7748;BME280;3918;42.564;23.164;2022-10-16T08:32:37;-11650.84;;;-142.29;44.57
7748;BME280;3918;42.564;23.164;2022-10-16T08:35:05;-11650.84;;;-142.29;42.83
7748;BME280;3918;42.564;23.164;2022-10-16T08:37:32;-11650.84;;;-142.29;45.55
7748;BME280;3918;42.564;23.164;2022-10-16T08:39:59;-11650.84;;;-142.29;47.08
7748;BME280;3918;42.564;23.164;2022-10-16T08:42:35;-11650.84;;;-142.29;47.41
7748;BME280;3918;42.564;23.164;2022-10-16T08:45:15;-11650.84;;;-142.29;49.71
7748;BME280;3918;42.564;23.164;2022-10-16T08:47:49;-11650.84;;;-142.29;50.85
7748;BME280;3918;42.564;23.164;2022-10-16T08:50:24;-11650.84;;;-142.29;52.34
7748;BME280;3918;42.564;23.164;2022-10-16T08:52:52;-11650.84;;;-142.29;55.08
7748;BME280;3918;42.564;23.164;2022-10-16T08:55:32;-11650.84;;;-142.29;57.44
7748;BME280;3918;42.564;23.164;2022-10-16T08:58:00;-11650.84;;;-142.29;58.32
7748;BME280;3918;42.564;23.164;2022-10-16T09:00:29;-11650.84;;;-142.29;63.08
7748;BME280;3918;42.564;23.164;2022-10-16T09:03:04;-11650.84;;;-142.29;66.65
7748;BME280;3918;42.564;23.164;2022-10-16T09:06:01;-11650.84;;;-142.29;72.80
7748;BME280;3918;42.564;23.164;2022-10-16T09:08:37;-11650.84;;;-142.29;73.01
7748;BME280;3918;42.564;23.164;2022-10-16T09:11:14;-11650.84;;;-142.29;71.52
7748;BME280;3918;42.564;23.164;2022-10-16T09:13:49;-11650.84;;;-142.29;73.64
7748;BME280;3918;42.564;23.164;2022-10-16T09:16:22;-11650.84;;;-142.29;77.12
7748;BME280;3918;42.564;23.164;2022-10-16T09:18:56;-11650.84;;;-142.29;78.49
7748;BME280;3918;42.564;23.164;2022-10-16T09:21:26;-11650.84;;;-142.29;78.71
7748;BME280;3918;42.564;23.164;2022-10-16T09:23:57;-11650.84;;;-142.29;80.10
7748;BME280;3918;42.564;23.164;2022-10-16T09:26:25;-11650.84;;;-142.29;79.57
7748;BME280;3918;42.564;23.164;2022-10-16T09:28:53;-11650.84;;;-142.29;82.71
7748;BME280;3918;42.564;23.164;2022-10-16T09:31:22;-11650.84;;;-142.29;83.08
7748;BME280;3918;42.564;23.164;2022-10-16T09:33:52;-11650.84;;;-142.29;78.62
7748;BME280;3918;42.564;23.164;2022-10-16T09:36:21;-11650.84;;;-142.29;79.06
7748;BME280;3918;42.564;23.164;2022-10-16T09:39:02;-11650.84;;;-142.29;78.99
7748;BME280;3918;42.564;23.164;2022-10-16T09:41:29;-11650.84;;;-142.29;76.15
7748;BME280;3918;42.564;23.164;2022-10-16T09:43:57;-11650.84;;;-142.29;77.12
7748;BME280;3918;42.564;23.164;2022-10-16T09:46:28;-11650.84;;;-142.29;77.01
7748;BME280;3918;42.564;23.164;2022-10-16T09:48:57;-11650.84;;;-142.29;75.60
7748;BME280;3918;42.564;23.164;2022-10-16T09:51:27;-11650.84;;;-142.29;73.59
7748;BME280;3918;42.564;23.164;2022-10-16T09:53:56;-11650.84;;;-142.29;74.61
7748;BME280;3918;42.564;23.164;2022-10-16T09:56:25;-11650.84;;;-142.29;75.08
7748;BME280;3918;42.564;23.164;2022-10-16T09:58:53;-11650.84;;;-142.29;75.98
7748;BME280;3918;42.564;23.164;2022-10-16T10:01:24;-11650.84;;;-142.29;74.48
7748;BME280;3918;42.564;23.164;2022-10-16T10:03:55;-11650.84;;;-142.29;71.86
7748;BME280;3918;42.564;23.164;2022-10-16T10:06:28;-11650.84;;;-142.29;71.32
7748;BME280;3918;42.564;23.164;2022-10-16T10:08:58;-11650.84;;;-142.29;72.17
7748;BME280;3918;42.564;23.164;2022-10-16T10:11:44;-11650.84;;;-142.29;73.85
7748;BME280;3918;42.564;23.164;2022-10-16T10:14:17;-11650.84;;;-142.29;71.90
7748;BME280;3918;42.564;23.164;2022-10-16T10:16:46;-11650.84;;;-142.29;73.48
7748;BME280;3918;42.564;23.164;2022-10-16T10:19:16;-11650.84;;;-142.29;74.23
7748;BME280;3918;42.564;23.164;2022-10-16T10:21:43;-11650.84;;;-142.29;72.21
7748;BME280;3918;42.564;23.164;2022-10-16T10:24:11;-11650.84;;;-142.29;74.49
7748;BME280;3918;42.564;23.164;2022-10-16T10:26:44;-11650.84;;;-142.29;73.53
7748;BME280;3918;42.564;23.164;2022-10-16T10:29:19;-11650.84;;;-142.29;71.13
7748;BME280;3918;42.564;23.164;2022-10-16T10:31:57;-11650.84;;;-142.29;70.96
7748;BME280;3918;42.564;23.164;2022-10-16T10:34:42;-11650.84;;;-142.29;69.89
7748;BME280;3918;42.564;23.164;2022-10-16T10:37:26;-11650.84;;;-142.29;69.48
7748;BME280;3918;42.564;23.164;2022-10-16T10:40:02;-11650.84;;;-142.29;68.12
7748;BME280;3918;42.564;23.164;2022-10-16T10:42:37;-11650.84;;;-142.29;66.06
7748;BME280;3918;42.564;23.164;2022-10-16T10:45:28;-11650.84;;;-142.29;66.71
7748;BME280;3918;42.564;23.164;2022-10-16T10:48:18;-11650.84;;;-142.29;66.07
7748;BME280;3918;42.564;23.164;2022-10-16T10:50:50;-11650.84;;;-142.29;66.90
7748;BME280;3918;42.564;23.164;2022-10-16T10:53:27;-11650.84;;;-142.29;67.74
7748;BME280;3918;42.564;23.164;2022-10-16T10:56:11;-11650.84;;;-142.29;67.17
7748;BME280;3918;42.564;23.164;2022-10-16T10:59:09;-11650.84;;;-142.29;66.19
7748;BME280;3918;42.564;23.164;2022-10-16T11:01:50;-11650.84;;;-142.29;67.60
7748;BME280;3918;42.564;23.164;2022-10-16T11:04:34;-11650.84;;;-142.29;66.30
7748;BME280;3918;42.564;23.164;2022-10-16T11:07:12;-11650.84;;;-142.29;67.25
7748;BME280;3918;42.564;23.164;2022-10-16T11:09:44;-11650.84;;;-142.29;66.37
7748;BME280;3918;42.564;23.164;2022-10-16T11:12:18;-11650.84;;;-142.29;66.30
7748;BME280;3918;42.564;23.164;2022-10-16T11:14:50;-11650.84;;;-142.29;66.44
7748;BME280;3918;42.564;23.164;2022-10-16T11:17:24;-11650.84;;;-142.29;63.54
7748;BME280;3918;42.564;23.164;2022-10-16T11:19:56;-11650.84;;;-142.29;64.30
7748;BME280;3918;42.564;23.164;2022-10-16T11:22:32;-11650.84;;;-142.29;63.70
7748;BME280;3918;42.564;23.164;2022-10-16T11:25:02;-11650.84;;;-142.29;63.01
7748;BME280;3918;42.564;23.164;2022-10-16T11:27:37;-11650.84;;;-142.29;63.29
7748;BME280;3918;42.564;23.164;2022-10-16T11:30:14;-11650.84;;;-142.29;63.24
7748;BME280;3918;42.564;23.164;2022-10-16T11:32:50;-11650.84;;;-142.29;63.49
7748;BME280;3918;42.564;23.164;2022-10-16T11:35:24;-11650.84;;;-142.29;63.30
7748;BME280;3918;42.564;23.164;2022-10-16T11:37:53;-11650.84;;;-142.29;61.99
7748;BME280;3918;42.564;23.164;2022-10-16T11:40:25;-11650.84;;;-142.29;62.06
7748;BME280;3918;42.564;23.164;2022-10-16T11:42:58;-11650.84;;;-142.29;61.99
7748;BME280;3918;42.564;23.164;2022-10-16T11:45:33;-11650.84;;;-142.29;60.08
7748;BME280;3918;42.564;23.164;2022-10-16T11:48:07;-11650.84;;;-142.29;60.31
7748;BME280;3918;42.564;23.164;2022-10-16T11:50:44;-11650.84;;;-142.29;60.41
7748;BME280;3918;42.564;23.164;2022-10-16T11:53:20;-11650.84;;;-142.29;60.45
7748;BME280;3918;42.564;23.164;2022-10-16T11:55:49;-11650.84;;;-142.29;61.53
7748;BME280;3918;42.564;23.164;2022-10-16T11:58:23;-11650.84;;;-142.29;59.28
7748;BME280;3918;42.564;23.164;2022-10-16T12:00:57;-11650.84;;;-142.29;59.93
7748;BME280;3918;42.564;23.164;2022-10-16T12:03:29;-11650.84;;;-142.29;58.65
7748;BME280;3918;42.564;23.164;2022-10-16T12:06:20;-11650.84;;;-142.29;59.04
7748;BME280;3918;42.564;23.164;2022-10-16T12:08:51;-11650.84;;;-142.29;57.50
7748;BME280;3918;42.564;23.164;2022-10-16T12:11:30;-11650.84;;;-142.29;57.06
7748;BME280;3918;42.564;23.164;2022-10-16T12:14:07;-11650.84;;;-142.29;57.81
7748;BME280;3918;42.564;23.164;2022-10-16T12:16:37;-11650.84;;;-142.29;57.35
7748;BME280;3918;42.564;23.164;2022-10-16T12:19:13;-11650.84;;;-142.29;58.20
7748;BME280;3918;42.564;23.164;2022-10-16T12:21:41;-11650.84;;;-142.29;57.37
7748;BME280;3918;42.564;23.164;2022-10-16T12:24:31;-11650.84;;;-142.29;57.04
7748;BME280;3918;42.564;23.164;2022-10-16T12:26:59;-11650.84;;;-142.29;56.70
7748;BME280;3918;42.564;23.164;2022-10-16T12:29:40;-11650.84;;;-142.29;56.65
7748;BME280;3918;42.564;23.164;2022-10-16T12:32:26;-11650.84;;;-142.29;55.68
7748;BME280;3918;42.564;23.164;2022-10-16T12:34:54;-11650.84;;;-142.29;56.11
7748;BME280;3918;42.564;23.164;2022-10-16T12:37:23;-11650.84;;;-142.29;55.73
7748;BME280;3918;42.564;23.164;2022-10-16T12:39:53;-11650.84;;;-142.29;55.76
7748;BME280;3918;42.564;23.164;2022-10-16T12:42:30;-11650.84;;;-142.29;55.42
7748;BME280;3918;42.564;23.164;2022-10-16T12:44:57;-11650.84;;;-142.29;54.66
7748;BME280;3918;42.564;23.164;2022-10-16T12:47:36;-11650.84;;;-142.29;54.89
7748;BME280;3918;42.564;23.164;2022-10-16T12:50:21;-11650.84;;;-142.29;54.93
7748;BME280;3918;42.564;23.164;2022-10-16T12:52:49;-11650.84;;;-142.29;55.98
7748;BME280;3918;42.564;23.164;2022-10-16T12:55:19;-11650.84;;;-142.29;54.18
7748;BME280;3918;42.564;23.164;2022-10-16T12:58:00;-11650.84;;;-142.29;54.86
7748;BME280;3918;42.564;23.164;2022-10-16T13:00:39;-11650.84;;;-142.29;54.43
7748;BME280;3918;42.564;23.164;2022-10-16T13:06:33;-11650.84;;;-142.29;54.67
7748;BME280;3918;42.564;23.164;2022-10-16T13:09:15;-11650.84;;;-142.29;52.62
7748;BME280;3918;42.564;23.164;2022-10-16T13:11:56;-11650.84;;;-142.29;52.78
7748;BME280;3918;42.564;23.164;2022-10-16T13:14:40;-11650.84;;;-142.29;53.16
7748;BME280;3918;42.564;23.164;2022-10-16T13:17:17;-11650.84;;;-142.29;53.94
7748;BME280;3918;42.564;23.164;2022-10-16T13:19:53;-11650.84;;;-142.29;53.56
7748;BME280;3918;42.564;23.164;2022-10-16T13:22:29;-11650.84;;;-142.29;52.34
7748;BME280;3918;42.564;23.164;2022-10-16T13:25:09;-11650.84;;;-142.29;52.45
7748;BME280;3918;42.564;23.164;2022-10-16T13:27:46;-11650.84;;;-142.29;53.54
7748;BME280;3918;42.564;23.164;2022-10-16T13:30:19;-11650.84;;;-142.29;52.74
7748;BME280;3918;42.564;23.164;2022-10-16T13:32:49;-11650.84;;;-142.29;53.04
7748;BME280;3918;42.564;23.164;2022-10-16T13:35:21;-11650.84;;;-142.29;53.21
7748;BME280;3918;42.564;23.164;2022-10-16T13:37:49;-11650.84;;;-142.29;53.05
7748;BME280;3918;42.564;23.164;2022-10-16T13:40:22;-11650.84;;;-142.29;51.87
7748;BME280;3918;42.564;23.164;2022-10-16T13:42:51;-11650.84;;;-142.29;51.32
7748;BME280;3918;42.564;23.164;2022-10-16T13:45:20;-11650.84;;;-142.29;51.26
7748;BME280;3918;42.564;23.164;2022-10-16T13:47:47;-11650.84;;;-142.29;51.31
7748;BME280;3918;42.564;23.164;2022-10-16T13:50:16;-11650.84;;;-142.29;51.58
7748;BME280;3918;42.564;23.164;2022-10-16T13:52:43;-11650.84;;;-142.29;51.88
7748;BME280;3918;42.564;23.164;2022-10-16T13:55:11;-11650.84;;;-142.29;51.37
7748;BME280;3918;42.564;23.164;2022-10-16T13:57:38;-11650.84;;;-142.29;51.13
7748;BME280;3918;42.564;23.164;2022-10-16T14:00:20;-11650.84;;;-142.29;52.01
7748;BME280;3918;42.564;23.164;2022-10-16T14:02:51;-11650.84;;;-142.29;52.29
7748;BME280;3918;42.564;23.164;2022-10-16T14:05:19;-11650.84;;;-142.29;52.34
7748;BME280;3918;42.564;23.164;2022-10-16T14:07:49;-11650.84;;;-142.29;52.17
7748;BME280;3918;42.564;23.164;2022-10-16T14:10:22;-11650.84;;;-142.29;52.01
7748;BME280;3918;42.564;23.164;2022-10-16T14:12:57;-11650.84;;;-142.29;52.72
7748;BME280;3918;42.564;23.164;2022-10-16T14:15:26;-11650.84;;;-142.29;52.06
7748;BME280;3918;42.564;23.164;2022-10-16T14:17:54;-11650.84;;;-142.29;51.81
7748;BME280;3918;42.564;23.164;2022-10-16T14:20:24;-11650.84;;;-142.29;52.32
7748;BME280;3918;42.564;23.164;2022-10-16T14:22:59;-11650.84;;;-142.29;52.84
7748;BME280;3918;42.564;23.164;2022-10-16T14:25:28;-11650.84;;;-142.29;52.45
7748;BME280;3918;42.564;23.164;2022-10-16T14:28:03;-11650.84;;;-142.29;52.42
7748;BME280;3918;42.564;23.164;2022-10-16T14:30:33;-11650.84;;;-142.29;53.22
7748;BME280;3918;42.564;23.164;2022-10-16T14:33:02;-11650.84;;;-142.29;52.64
7748;BME280;3918;42.564;23.164;2022-10-16T14:35:31;-11650.84;;;-142.29;52.92
7748;BME280;3918;42.564;23.164;2022-10-16T14:38:00;-11650.84;;;-142.29;52.89
7748;BME280;3918;42.564;23.164;2022-10-16T14:40:28;-11650.84;;;-142.29;53.16
7748;BME280;3918;42.564;23.164;2022-10-16T14:42:56;-11650.84;;;-142.29;53.35
7748;BME280;3918;42.564;23.164;2022-10-16T14:45:24;-11650.84;;;-142.29;53.53
7748;BME280;3918;42.564;23.164;2022-10-16T14:47:56;-11650.84;;;-142.29;53.18
7748;BME280;3918;42.564;23.164;2022-10-16T14:50:23;-11650.84;;;-142.29;53.59
7748;BME280;3918;42.564;23.164;2022-10-16T14:52:50;-11650.84;;;-142.29;53.93
7748;BME280;3918;42.564;23.164;2022-10-16T14:55:18;-11650.84;;;-142.29;54.24
7748;BME280;3918;42.564;23.164;2022-10-16T14:57:45;-11650.84;;;-142.29;54.71
7748;BME280;3918;42.564;23.164;2022-10-16T15:00:17;-11650.84;;;-142.29;55.12
7748;BME280;3918;42.564;23.164;2022-10-16T15:02:44;-11650.84;;;-142.29;54.87
7748;BME280;3918;42.564;23.164;2022-10-16T15:05:15;-11650.84;;;-142.29;54.76
7748;BME280;3918;42.564;23.164;2022-10-16T15:07:43;-11650.84;;;-142.29;55.77
7748;BME280;3918;42.564;23.164;2022-10-16T15:10:10;-11650.84;;;-142.29;55.83
7748;BME280;3918;42.564;23.164;2022-10-16T15:12:37;-11650.84;;;-142.29;56.07
7748;BME280;3918;42.564;23.164;2022-10-16T15:15:31;-11650.84;;;-142.29;56.12
7748;BME280;3918;42.564;23.164;2022-10-16T15:17:58;-11650.84;;;-142.29;56.66
7748;BME280;3918;42.564;23.164;2022-10-16T15:20:28;-11650.84;;;-142.29;56.25
7748;BME280;3918;42.564;23.164;2022-10-16T15:22:56;-11650.84;;;-142.29;56.92
7748;BME280;3918;42.564;23.164;2022-10-16T15:25:35;-11650.84;;;-142.29;57.29
7748;BME280;3918;42.564;23.164;2022-10-16T15:28:05;-11650.84;;;-142.29;58.14
7748;BME280;3918;42.564;23.164;2022-10-16T15:30:32;-11650.84;;;-142.29;58.53
7748;BME280;3918;42.564;23.164;2022-10-16T15:32:59;-11650.84;;;-142.29;58.43
7748;BME280;3918;42.564;23.164;2022-10-16T15:35:28;-11650.84;;;-142.29;59.38
7748;BME280;3918;42.564;23.164;2022-10-16T15:37:56;-11650.84;;;-142.29;59.84
7748;BME280;3918;42.564;23.164;2022-10-16T15:40:23;-11650.84;;;-142.29;63.24
7748;BME280;3918;42.564;23.164;2022-10-16T15:42:50;-11650.84;;;-142.29;65.15
7748;BME280;3918;42.564;23.164;2022-10-16T15:45:17;-11650.84;;;-142.29;67.73
7748;BME280;3918;42.564;23.164;2022-10-16T15:47:44;-11650.84;;;-142.29;70.39
7748;BME280;3918;42.564;23.164;2022-10-16T15:50:12;-11650.84;;;-142.29;74.44
7748;BME280;3918;42.564;23.164;2022-10-16T15:52:41;-11650.84;;;-142.29;78.74
7748;BME280;3918;42.564;23.164;2022-10-16T15:55:08;-11650.84;;;-142.29;79.03
7748;BME280;3918;42.564;23.164;2022-10-16T15:57:36;-11650.84;;;-142.29;81.25
7748;BME280;3918;42.564;23.164;2022-10-16T16:00:06;-11650.84;;;-142.29;83.03
7748;BME280;3918;42.564;23.164;2022-10-16T16:02:33;-11650.84;;;-142.29;86.41
7748;BME280;3918;42.564;23.164;2022-10-16T16:05:00;-11650.84;;;-142.29;88.51
7748;BME280;3918;42.564;23.164;2022-10-16T16:07:27;-11650.84;;;-142.29;91.66
7748;BME280;3918;42.564;23.164;2022-10-16T16:09:55;-11650.84;;;-142.29;96.48
7748;BME280;3918;42.564;23.164;2022-10-16T16:12:22;-11650.84;;;-142.29;96.15
7748;BME280;3918;42.564;23.164;2022-10-16T16:14:49;-11650.84;;;-142.29;96.31
7748;BME280;3918;42.564;23.164;2022-10-16T16:17:16;-11650.84;;;-142.29;94.52
7748;BME280;3918;42.564;23.164;2022-10-16T16:19:43;-11650.84;;;-142.29;94.07
7748;BME280;3918;42.564;23.164;2022-10-16T16:22:10;-11650.84;;;-142.29;94.62
7748;BME280;3918;42.564;23.164;2022-10-16T16:24:37;-11650.84;;;-142.29;93.83
7748;BME280;3918;42.564;23.164;2022-10-16T16:27:05;-11650.84;;;-142.29;92.89
7748;BME280;3918;42.564;23.164;2022-10-16T16:29:32;-11650.84;;;-142.29;95.03
7748;BME280;3918;42.564;23.164;2022-10-16T16:31:59;-11650.84;;;-142.29;95.76
7748;BME280;3918;42.564;23.164;2022-10-16T16:34:27;-11650.84;;;-142.29;97.45
7748;BME280;3918;42.564;23.164;2022-10-16T16:36:55;-11650.84;;;-142.29;97.15
7748;BME280;3918;42.564;23.164;2022-10-16T16:39:22;-11650.84;;;-142.29;96.31
7748;BME280;3918;42.564;23.164;2022-10-16T16:41:49;-11650.84;;;-142.29;95.18
7748;BME280;3918;42.564;23.164;2022-10-16T16:44:18;-11650.84;;;-142.29;94.63
7748;BME280;3918;42.564;23.164;2022-10-16T16:46:44;-11650.84;;;-142.29;95.05
7748;BME280;3918;42.564;23.164;2022-10-16T16:49:12;-11650.84;;;-142.29;94.94
7748;BME280;3918;42.564;23.164;2022-10-16T16:51:40;-11650.84;;;-142.29;96.37
7748;BME280;3918;42.564;23.164;2022-10-16T16:54:08;-11650.84;;;-142.29;98.57
7748;BME280;3918;42.564;23.164;2022-10-16T16:56:36;-11650.84;;;-142.29;99.68
7748;BME280;3918;42.564;23.164;2022-10-16T16:59:03;-11650.84;;;-142.29;98.09
7748;BME280;3918;42.564;23.164;2022-10-16T17:01:31;-11650.84;;;-142.29;99.81
7748;BME280;3918;42.564;23.164;2022-10-16T17:03:58;-11650.84;;;-142.29;99.42
7748;BME280;3918;42.564;23.164;2022-10-16T17:06:28;-11650.84;;;-142.29;96.71
7748;BME280;3918;42.564;23.164;2022-10-16T17:08:56;-11650.84;;;-142.29;96.11
7748;BME280;3918;42.564;23.164;2022-10-16T17:11:25;-11650.84;;;-142.29;97.37
7748;BME280;3918;42.564;23.164;2022-10-16T17:13:53;-11650.84;;;-142.29;98.04
7748;BME280;3918;42.564;23.164;2022-10-16T17:16:22;-11650.84;;;-142.29;98.79
7748;BME280;3918;42.564;23.164;2022-10-16T17:18:50;-11650.84;;;-142.29;100.00
7748;BME280;3918;42.564;23.164;2022-10-16T17:21:19;-11650.84;;;-142.29;98.79
7748;BME280;3918;42.564;23.164;2022-10-16T17:23:45;-11650.84;;;-142.29;95.32
7748;BME280;3918;42.564;23.164;2022-10-16T17:26:14;-11650.84;;;-142.29;96.11
7748;BME280;3918;42.564;23.164;2022-10-16T17:28:42;-11650.84;;;-142.29;99.07
7748;BME280;3918;42.564;23.164;2022-10-16T17:31:10;-11650.84;;;-142.29;100.00
7748;BME280;3918;42.564;23.164;2022-10-16T17:33:37;-11650.84;;;-142.29;100.00
7748;BME280;3918;42.564;23.164;2022-10-16T17:36:06;-11650.84;;;-142.29;100.00
7748;BME280;3918;42.564;23.164;2022-10-16T17:38:34;-11650.84;;;-142.29;100.00
7748;BME280;3918;42.564;23.164;2022-10-16T17:41:09;-11650.84;;;-142.29;100.00
7748;BME280;3918;42.564;23.164;2022-10-16T17:43:37;-11650.84;;;-142.29;98.09
7748;BME280;3918;42.564;23.164;2022-10-16T17:46:04;-11650.84;;;-142.29;96.19
7748;BME280;3918;42.564;23.164;2022-10-16T17:48:31;-11650.84;;;-142.29;94.43
7748;BME280;3918;42.564;23.164;2022-10-16T17:50:58;-11650.84;;;-142.29;94.89
7748;BME280;3918;42.564;23.164;2022-10-16T17:53:26;-11650.84;;;-142.29;98.06
7748;BME280;3918;42.564;23.164;2022-10-16T17:55:53;-11650.84;;;-142.29;100.00
7748;BME280;3918;42.564;23.164;2022-10-16T17:58:23;-11650.84;;;-142.29;100.00
7748;BME280;3918;42.564;23.164;2022-10-16T18:00:50;-11650.84;;;-142.29;100.00